Flight Track Log - Related Links

Times and Time Zones

All times are in EDT time to prevent confusion due to time zone crossing. See the SNC1015 flight status page for this flight to view local times or setup timezone preferences in your user account.

Time Position Orientation Groundspeed Altitude Reporting Facility
EDT Latitude Longitude Course Direction KTS MPH feet Rate Location/Type
10:21PM 40.1403 -76.8506 237° Southwest 123 142 4,300  Level New York Center
10:22PM 40.1319 -76.8906 255° West 128 147 5,200 900 Climbing New York Center
10:23PM 40.1256 -76.9333 259° West 128 147 6,100 900 Climbing New York Center
10:24PM 40.3000 -77.0594 270° West  Level FlightAware Approximate
10:24PM 40.1169 -76.9789 256° West 128 147 7,000  Level New York Center
10:25PM 40.2737 -77.1027 237° Southwest  Level FlightAware Approximate
10:25PM 40.1103 -77.0244 259° West 128 147 7,700  Level New York Center
10:26PM 40.1017 -77.0725 257° West 133 153 8,500 800 Climbing New York Center
10:27PM 40.0931 -77.1153 255° West 133 153 9,300 750 Climbing New York Center
10:28PM 40.0842 -77.1606 256° West 133 153 10,000 350 Climbing New York Center
10:29PM 40.0753 -77.2111 257° West 138 159 10,000 50 Level New York Center
10:30PM 40.0658 -77.2700 258° West 157 181 10,100  Climbing New York Center
10:31PM 40.0542 -77.3286 255° West 170 196 10,000 -50 Descending New York Center
10:32PM 40.0422 -77.3928 256° West 176 203 10,000  Level New York Center
10:33PM 40.0328 -77.4514 258° West 182 209 10,000 -42 Level New York Center
10:34PM 40.0203 -77.5367 259° West 170 196 9,900 -42 Descending Cleveland Center
10:35PM 40.0103 -77.5964 258° West 170 196 9,900  Level Cleveland Center
10:36PM 40.0003 -77.6528 257° West 165 190 9,900  Level Cleveland Center
10:37PM 39.9858 -77.7094 252° West 164 189 9,900 49 Level Cleveland Center
10:38PM 39.9717 -77.7675 252° West 165 190 10,000 49 Climbing Cleveland Center
10:39PM 39.9581 -77.8281 254° West 169 194 10,000 49 Level Cleveland Center
10:40PM 39.9436 -77.8864 252° West 169 194 10,100  Climbing Cleveland Center
10:41PM 39.9272 -77.9594 254° West 172 198 10,000  Descending Cleveland Center
10:42PM 39.9181 -78.0167 258° West 169 194 10,100 49 Climbing Cleveland Center
10:43PM 39.9075 -78.0767 257° West 169 194 10,100  Level Cleveland Center
10:44PM 39.8969 -78.1372 257° West 169 194 10,100 -49 Level Cleveland Center
10:45PM 39.8858 -78.1975 257° West 169 194 10,000  Descending Cleveland Center
10:46PM 39.8747 -78.2564 256° West 169 194 10,100 49 Climbing Cleveland Center
10:47PM 39.8633 -78.3197 257° West 169 194 10,100  Level Cleveland Center
10:48PM 39.8519 -78.3822 257° West 172 198 10,100  Level Cleveland Center
10:49PM 39.8403 -78.4453 256° West 175 201 10,100  Level Cleveland Center
10:50PM 39.8300 -78.5075 258° West 176 203 10,100 -49 Level Cleveland Center
10:52PM 39.8167 -78.5692 254° West 177 204 10,000 -49 Descending Cleveland Center
10:53PM 39.8056 -78.6283 256° West 172 198 10,000 49 Level Cleveland Center
10:54PM 39.7922 -78.6889 254° West 172 198 10,100 49 Climbing Cleveland Center
10:55PM 39.7772 -78.7606 255° West 174 200 10,100  Level Cleveland Center
10:56PM 39.7653 -78.8222 256° West 176 203 10,100 -49 Level Cleveland Center
10:57PM 39.7519 -78.8842 254° West 177 204 10,000 -49 Descending Cleveland Center
10:58PM 39.7397 -78.9428 255° West 173 199 10,000 98 Level Cleveland Center
10:59PM 39.7269 -79.0086 256° West 173 199 10,200 98 Climbing Cleveland Center
11:00PM 39.7125 -79.0708 253° West 175 201 10,200  Level Cleveland Center
11:01PM 39.7025 -79.1281 257° West 166 191 10,200 -49 Level Cleveland Center
11:02PM 39.6919 -79.1867 257° West 166 191 10,100  Descending Cleveland Center
11:03PM 39.6814 -79.2447 257° West 167 192 10,200 -49 Climbing Cleveland Center
11:04PM 39.6711 -79.3003 257° West 165 190 10,000 -98 Descending Cleveland Center
11:05PM 39.6603 -79.3581 256° West 165 190 10,000 49 Level Cleveland Center
11:06PM 39.6492 -79.4156 256° West 165 190 10,100  Climbing Cleveland Center
11:07PM 39.6381 -79.4739 256° West 165 190 10,000 -49 Descending Cleveland Center
11:08PM 39.6269 -79.5300 256° West 165 190 10,000  Level Cleveland Center
11:09PM 39.6169 -79.5883 257° West 164 189 10,000  Level Cleveland Center
11:10PM 39.6039 -79.6478 254° West 170 196 10,000  Level Cleveland Center
11:11PM 39.5897 -79.7136 254° West 162 186 10,000  Level Cleveland Center
11:12PM 39.5769 -79.7703 254° West 162 186 10,000  Level Cleveland Center
11:13PM 39.5667 -79.8300 257° West 164 189 10,000  Level Cleveland Center
11:14PM 39.5558 -79.8892 257° West 167 192 10,000  Level Cleveland Center
11:15PM 39.5544 -79.9425 268° West 156 180 10,000  Level Cleveland Center
11:16PM 39.5503 -80.0006 265° West 156 180 10,000 49 Level Cleveland Center
11:17PM 39.5461 -80.0583 265° West 158 182 10,100 49 Climbing Cleveland Center
11:18PM 39.5428 -80.1161 266° West 160 184 10,100  Level Cleveland Center
11:19PM 39.5372 -80.1750 263° West 161 185 10,100 -49 Level Cleveland Center
11:20PM 39.5342 -80.2331 266° West 161 185 10,000  Descending Cleveland Center
11:21PM 39.5306 -80.2914 265° West 161 185 10,100 49 Climbing Cleveland Center
11:22PM 39.5283 -80.3472 267° West 160 184 10,100 -49 Level Cleveland Center
11:23PM 39.5236 -80.4042 264° West 157 181 10,000 -49 Descending Cleveland Center
11:24PM 39.5183 -80.4622 263° West 157 181 10,000  Level Cleveland Center
11:25PM 39.5158 -80.5300 267° West 158 182 10,000  Level Cleveland Center
11:26PM 39.5083 -80.5858 260° West 158 182 10,000  Level Cleveland Center
11:27PM 39.5050 -80.6428 266° West 157 181 10,000  Level Cleveland Center
11:28PM 39.4994 -80.6997 263° West 158 182 10,000  Level Cleveland Center
11:29PM 39.4953 -80.7578 265° West 160 184 10,000  Level Cleveland Center
11:30PM 39.4900 -80.8142 263° West 160 184 10,000  Level Cleveland Center
11:31PM 39.4856 -80.8728 264° West 161 185 10,000  Level Cleveland Center
11:32PM 39.4814 -80.9097 262° West 159 183 10,000  Level Indianapolis Center
11:33PM 39.4769 -80.9675 264° West 159 183 10,000  Level Indianapolis Center
11:34PM 39.4694 -81.0267 261° West 161 185 10,000  Level Indianapolis Center
11:35PM 39.4622 -81.0856 261° West 163 188 10,000 49 Level Indianapolis Center
11:36PM 39.4594 -81.1433 266° West 163 188 10,100 -49 Climbing Indianapolis Center
11:37PM 39.4531 -81.2050 262° West 167 192 9,900 -49 Descending Indianapolis Center
11:38PM 39.4408 -81.2764 258° West 171 197 10,000 50 Climbing Indianapolis Center
11:39PM 39.4369 -81.3361 265° West 171 197 10,000 -50 Level Indianapolis Center
11:40PM 39.4308 -81.3975 263° West 171 197 9,900 -49 Descending Indianapolis Center
11:41PM 39.4256 -81.4569 263° West 170 196 9,900 50 Level Indianapolis Center
11:42PM 39.4194 -81.5181 263° West 170 196 10,000 50 Climbing Indianapolis Center
11:43PM 39.4150 -81.5783 265° West 170 196 10,000  Level Indianapolis Center
11:44PM 39.4106 -81.6394 265° West 170 196 10,000  Level Indianapolis Center
11:45PM 39.4072 -81.7000 266° West 170 196 10,000  Level Indianapolis Center
11:46PM 39.3978 -81.7600 259° West 170 196 10,000 -50 Level Indianapolis Center
11:47PM 39.3897 -81.8208 260° West 170 196 9,900  Descending Indianapolis Center
11:48PM 39.3803 -81.8828 259° West 171 197 10,000  Climbing Indianapolis Center
11:49PM 39.3733 -81.9406 261° West 170 196 9,900  Descending Indianapolis Center
11:50PM 39.3683 -81.9994 264° West 168 193 10,000  Climbing Indianapolis Center
11:51PM 39.3639 -82.0583 264° West 168 193 9,900  Descending Indianapolis Center
11:52PM 39.3589 -82.1169 264° West 167 192 10,000  Climbing Indianapolis Center
11:53PM 39.3544 -82.1753 264° West 167 192 9,900 -50 Descending Indianapolis Center
11:54PM 39.3481 -82.2350 262° West 167 192 9,900  Level Indianapolis Center
11:55PM 39.3408 -82.2942 261° West 166 191 9,900  Level Indianapolis Center
11:56PM 39.3356 -82.3647 264° West 166 191 9,900 50 Level Indianapolis Center
11:57PM 39.3244 -82.4233 256° West 166 191 10,000 49 Climbing Indianapolis Center
11:58PM 39.3164 -82.4828 260° West 167 192 10,000  Level Indianapolis Center
11:59PM 39.3108 -82.5369 262° West 167 192 10,000  Level Indianapolis Center
12:00AM 39.3025 -82.5975 260° West 168 193 10,000  Level Indianapolis Center
12:01AM 39.2978 -82.6572 264° West 168 193 10,000  Level Indianapolis Center
12:02AM 39.2878 -82.7183 258° West 168 193 10,000  Level Indianapolis Center
12:03AM 39.2792 -82.7792 260° West 169 194 10,000  Level Indianapolis Center
12:04AM 39.2717 -82.8403 261° West 170 196 10,000  Level Indianapolis Center
12:05AM 39.2661 -82.9019 263° West 171 197 10,000  Level Indianapolis Center
12:06AM 39.2586 -82.9753 262° West 172 198 10,000  Level Indianapolis Center
12:07AM 39.2525 -83.0372 263° West 172 198 10,000  Level Indianapolis Center
12:08AM 39.2458 -83.1014 262° West 175 201 10,000  Level Indianapolis Center
12:09AM 39.2397 -83.1642 263° West 177 204 10,000  Level Indianapolis Center
12:10AM 39.2331 -83.2275 262° West 177 204 10,000  Level Indianapolis Center
12:11AM 39.2256 -83.2908 261° West 177 204 10,000 -50 Level Indianapolis Center
12:12AM 39.2186 -83.3525 262° West 177 204 9,900  Descending Indianapolis Center
12:13AM 39.2128 -83.4142 263° West 176 203 10,000 50 Climbing Indianapolis Center
12:14AM 39.2069 -83.4733 263° West 172 198 10,000  Level Indianapolis Center
12:15AM 39.1994 -83.5319 261° West 171 197 10,000  Level Indianapolis Center
12:16AM 39.1950 -83.5903 264° West 167 192 10,000  Level Indianapolis Center
12:17AM 39.1872 -83.6486 260° West 166 191 10,000  Level Indianapolis Center
12:18AM 39.1819 -83.7092 264° West 166 191 10,000 -50 Level Indianapolis Center
12:19AM 39.1750 -83.7667 261° West 166 191 9,900  Descending Indianapolis Center
12:20AM 39.1661 -83.8272 259° West 167 192 10,000 50 Climbing Indianapolis Center
12:21AM 39.1481 -83.8828 247° West 167 192 10,000  Level Indianapolis Center
12:22AM 39.1200 -83.9389 237° Southwest 181 208 10,000  Level Indianapolis Center
12:23AM 39.0942 -83.9942 239° Southwest 182 209 10,000 -198 Level Indianapolis Center
12:24AM 39.0672 -84.0519 239° Southwest 183 211 9,600 -496 Descending Indianapolis Center
12:25AM 39.0431 -84.1122 243° Southwest 187 215 9,000 -545 Descending Indianapolis Center
12:26AM 39.0186 -84.1731 243° Southwest 188 216 8,500 -545 Descending Indianapolis Center
12:27AM 38.9942 -84.2361 244° Southwest 191 220 7,900 -595 Descending Indianapolis Center
12:28AM 38.9714 -84.3019 246° West 196 226 7,300 -694 Descending Indianapolis Center
12:29AM 38.9589 -84.3658 256° West 190 219 6,500 -893 Descending Indianapolis Center
12:30AM 38.9494 -84.4275 259° West 180 207 5,500 -744 Descending Indianapolis Center
12:31AM 38.9442 -84.4886 264° West 178 205 5,000 -595 Descending Indianapolis Center
12:32AM 38.9386 -84.5503 263° West 166 191 4,300 -784 Descending Indianapolis Center
12:34AM 38.9667 -84.6500 290° West 147 169 2,700 -891 Descending Cincinnati TRACON
12:35AM 39.0000 -84.6500 360° North 120 138 1,700 -1,000 Descending Cincinnati TRACON
12:37AM 39.0333 -84.6667 282° West  Level FlightAware Approximate

Login

Don't have an account? Register now (free) for customized features, flight alerts, and more!